Time;durP1;ratioP1;P1;durP2;ratioP2;P2;SDS_P1;SDS_P2;PMS_P1;PMS_P2;Temp;Humidity;BMP_temperature;BMP_pressure;BME280_temperature;BME280_humidity;BME280_pressure;Samples;Min_cycle;Max_cycle;Signal;HPM_P1;HPM_P2
2023/05/23 00:00:25;;;;;;;12.80;8.40;;;460.80;2380.80;;;;;;5042828;28;20287;-77
2023/05/23 00:02:51;;;;;;;10.70;8.80;;;460.80;2380.80;;;;;;5042964;28;20009;-77
2023/05/23 00:05:18;;;;;;;12.50;8.75;;;460.80;2380.80;;;;;;5041277;28;20014;-77
2023/05/23 00:07:44;;;;;;;12.20;8.18;;;;;;;;;;5043505;28;20013;-77
2023/05/23 00:10:12;;;;;;;13.93;8.70;;;;;;;;;;5048247;28;20085;-77
2023/05/23 00:12:38;;;;;;;13.05;9.18;;;;;;;;;;5041649;28;20017;-78
2023/05/23 00:15:06;;;;;;;13.65;9.15;;;;;;;;;;5042756;28;20447;-77
2023/05/23 00:17:32;;;;;;;14.35;9.10;;;;;;;;;;5042961;28;20021;-77
2023/05/23 00:19:59;;;;;;;12.85;8.73;;;;;;;;;;5043227;28;20052;-78
2023/05/23 00:22:25;;;;;;;13.18;9.55;;;;;;;;;;5036506;28;19995;-78
2023/05/23 00:24:52;;;;;;;15.00;10.00;;;;;;;;;;5038627;28;20009;-76
2023/05/23 00:27:18;;;;;;;18.15;10.52;;;;;;;;;;5047644;28;20021;-78
2023/05/23 00:29:43;;;;;;;14.98;10.13;;;435.40;2355.20;;;;;;5036866;28;19998;-77
2023/05/23 00:32:09;;;;;;;12.93;9.20;;;410.30;2355.20;;;;;;5037817;28;20002;-77
2023/05/23 00:34:36;;;;;;;15.10;8.52;;;410.50;2355.20;;;;;;5040325;28;19994;-78
2023/05/23 00:37:03;;;;;;;13.77;8.85;;;435.20;2355.20;;;;;;5040357;28;20059;-78
2023/05/23 00:39:29;;;;;;;15.95;8.70;;;435.30;2355.20;;;;;;5046753;28;20062;-78
2023/05/23 00:41:55;;;;;;;15.43;9.00;;;435.50;2355.20;;;;;;5036295;28;20002;-77
2023/05/23 00:44:21;;;;;;;17.13;9.30;;;435.90;2355.20;;;;;;5042117;28;20010;-77
2023/05/23 00:46:52;;;;;;;13.55;8.95;;;435.70;2355.20;;;;;;5035476;28;20011;-78
2023/05/23 00:49:19;;;;;;;13.55;8.80;;;436.00;2355.20;;;;;;5047276;28;20019;-77
2023/05/23 00:51:45;;;;;;;12.13;8.52;;;435.90;2355.20;;;;;;5038731;28;20044;-77
2023/05/23 00:54:13;;;;;;;13.80;9.43;;;435.80;2355.20;;;;;;5044409;28;20057;-78
2023/05/23 00:56:40;;;;;;;13.77;8.65;;;435.90;2355.20;;;;;;5036415;28;20017;-78
2023/05/23 00:59:06;;;;;;;14.95;9.13;;;435.70;2355.20;;;;;;5041527;28;19998;-78
2023/05/23 01:01:32;;;;;;;14.75;9.30;;;435.60;2355.20;;;;;;5039615;28;20014;-78
2023/05/23 01:03:58;;;;;;;13.05;8.60;;;435.50;2355.20;;;;;;5038784;28;20036;-78
2023/05/23 01:06:24;;;;;;;12.68;8.98;;;435.70;2355.20;;;;;;5039276;28;20065;-78
2023/05/23 01:08:50;;;;;;;11.88;8.90;;;435.70;2355.20;;;;;;5042862;28;20010;-78
2023/05/23 01:11:29;;;;;;;11.68;9.10;;;435.70;2355.20;;;;;;5046707;28;20065;-78
2023/05/23 01:14:10;;;;;;;12.63;8.85;;;435.70;2355.20;;;;;;5036498;28;20305;-78
2023/05/23 01:16:56;;;;;;;11.65;8.38;;;435.60;2355.20;;;;;;5042952;28;20033;-78
2023/05/23 01:19:21;;;;;;;14.60;8.23;;;435.70;2355.20;;;;;;5048357;28;20002;-78
2023/05/23 01:21:52;;;;;;;12.35;7.75;;;435.70;2355.20;;;;;;5041234;28;20036;-77
2023/05/23 01:24:35;;;;;;;12.32;8.40;;;435.70;2355.20;;;;;;5047576;28;20009;-78
2023/05/23 01:27:03;;;;;;;12.43;8.15;;;435.80;2355.20;;;;;;5044201;28;20010;-78
2023/05/23 01:29:33;;;;;;;14.20;8.40;;;435.80;2355.20;;;;;;5045773;28;20011;-77
2023/05/23 01:32:00;;;;;;;15.15;8.63;;;435.60;2355.20;;;;;;5046023;28;20010;-78
2023/05/23 01:34:29;;;;;;;15.90;9.77;;;435.20;2355.20;;;;;;5044545;28;20073;-78
2023/05/23 01:36:55;;;;;;;17.25;10.75;;;410.30;2355.20;;;;;;5047472;28;20010;-78
2023/05/23 01:39:22;;;;;;;17.40;11.30;;;;;;;;;;5046015;28;20005;-78
2023/05/23 01:41:49;;;;;;;15.00;11.63;;;;;;;;;;5050450;28;20036;-78
2023/05/23 01:44:15;;;;;;;16.92;11.45;;;;;;;;;;5047824;28;19998;-78
2023/05/23 01:46:43;;;;;;;14.25;10.73;;;;;;;;;;5049212;28;19993;-78
2023/05/23 01:49:10;;;;;;;16.80;11.52;;;;;;;;;;5051146;28;20009;-78
2023/05/23 01:51:37;;;;;;;16.63;12.00;;;;;;;;;;5047287;28;20037;-79
2023/05/23 01:54:03;;;;;;;15.55;11.38;;;;;;;;;;5050554;28;20001;-78
2023/05/23 01:56:29;;;;;;;14.10;10.80;;;;;;;;;;5046169;28;20018;-78
2023/05/23 01:58:56;;;;;;;17.17;10.90;;;;;;;;;;5049377;28;19998;-78
2023/05/23 02:01:22;;;;;;;14.77;10.80;;;;;;;;;;5049636;28;20022;-78
2023/05/23 02:03:48;;;;;;;15.07;10.32;;;;;;;;;;5049903;28;20034;-77
2023/05/23 02:06:14;;;;;;;15.13;10.30;;;;;;;;;;5051210;28;20021;-77
2023/05/23 02:08:40;;;;;;;12.00;9.63;;;410.20;2355.20;;;;;;5050100;28;19999;-77
2023/05/23 02:11:07;;;;;;;12.52;9.48;;;410.00;2355.20;;;;;;5049723;28;20005;-77
2023/05/23 02:13:33;;;;;;;15.35;9.95;;;;;;;;;;5046701;28;20088;-77
2023/05/23 02:15:59;;;;;;;14.20;9.80;;;410.50;2355.20;;;;;;5047064;28;20014;-77
2023/05/23 02:18:28;;;;;;;14.43;10.27;;;410.30;2355.20;;;;;;5046061;28;20057;-77
2023/05/23 02:20:55;;;;;;;17.88;10.63;;;410.20;2355.20;;;;;;5044597;28;20025;-77
2023/05/23 02:23:21;;;;;;;16.83;10.38;;;410.10;2355.20;;;;;;5047314;28;20010;-77
2023/05/23 02:25:47;;;;;;;19.27;11.10;;;410.10;2355.20;;;;;;5049650;28;20033;-77
2023/05/23 02:28:13;;;;;;;18.23;10.10;;;410.10;2355.20;;;;;;5048495;28;20033;-77
2023/05/23 02:30:39;;;;;;;15.57;10.90;;;410.10;2355.20;;;;;;5049870;28;20013;-77
2023/05/23 02:33:06;;;;;;;19.95;10.48;;;410.00;2355.20;;;;;;5050165;28;19998;-77
2023/05/23 02:35:32;;;;;;;17.63;9.98;;;410.00;2355.20;;;;;;5048209;28;20034;-77
2023/05/23 02:37:59;;;;;;;19.98;10.45;;;410.10;2355.20;;;;;;5049748;28;20002;-77
2023/05/23 02:40:25;;;;;;;18.20;9.65;;;410.10;2355.20;;;;;;5047420;28;20074;-77
2023/05/23 02:42:50;;;;;;;13.07;10.05;;;410.10;2355.20;;;;;;5051173;28;20028;-77
2023/05/23 02:45:17;;;;;;;14.23;10.82;;;410.10;2355.20;;;;;;5044667;28;20024;-77
2023/05/23 02:47:43;;;;;;;15.63;10.70;;;410.00;2355.20;;;;;;5046724;28;20009;-77
2023/05/23 02:50:09;;;;;;;12.32;10.57;;;410.00;2304.00;;;;;;5046556;28;20055;-77
2023/05/23 02:52:35;;;;;;;13.20;9.88;;;410.00;2304.00;;;;;;5047275;28;20025;-77
2023/05/23 02:55:01;;;;;;;13.70;9.68;;;410.00;2355.20;;;;;;5049886;28;19986;-77
2023/05/23 02:57:26;;;;;;;13.05;9.32;;;410.00;2355.20;;;;;;5048471;28;20017;-77
2023/05/23 02:59:52;;;;;;;11.55;9.05;;;409.90;2355.20;;;;;;5047326;28;20014;-77
2023/05/23 03:02:18;;;;;;;13.57;10.05;;;410.00;2355.20;;;;;;5045371;28;20002;-77
2023/05/23 03:04:43;;;;;;;13.40;9.77;;;410.10;2355.20;;;;;;5043137;28;20065;-77
2023/05/23 03:07:11;;;;;;;11.35;9.27;;;410.00;2355.20;;;;;;5045905;28;20029;-77
2023/05/23 03:09:37;;;;;;;13.63;9.57;;;410.10;2355.20;;;;;;5047142;28;19998;-77
2023/05/23 03:12:03;;;;;;;12.25;9.43;;;410.20;2304.00;;;;;;5048080;28;20005;-77
2023/05/23 03:14:29;;;;;;;12.55;9.23;;;410.20;2355.20;;;;;;5047895;28;20002;-77
2023/05/23 03:16:55;;;;;;;12.57;10.00;;;410.30;2355.20;;;;;;5050605;28;20016;-76
2023/05/23 03:19:20;;;;;;;14.88;11.23;;;410.20;2355.20;;;;;;5053381;28;20001;-77
2023/05/23 03:21:49;;;;;;;20.15;11.38;;;409.90;2355.20;;;;;;5042227;28;20015;-77
2023/05/23 03:24:15;;;;;;;18.75;11.63;;;;;;;;;;5050389;28;20021;-76
2023/05/23 03:26:41;;;;;;;20.92;11.63;;;;;;;;;;5049202;28;20024;-77
2023/05/23 03:29:09;;;;;;;18.05;12.15;;;;;;;;;;5051056;28;20006;-77
2023/05/23 03:31:35;;;;;;;19.63;12.23;;;;;;;;;;5046941;28;20014;-77
2023/05/23 03:34:04;;;;;;;20.00;13.05;;;;;;;;;;5046104;28;20033;-77
2023/05/23 03:36:32;;;;;;;21.92;12.52;;;;;;;;;;5049068;28;20010;-77
2023/05/23 03:38:58;;;;;;;21.73;13.18;;;;;;;;;;5041948;28;20069;-77
2023/05/23 03:41:25;;;;;;;17.10;12.30;;;;;;;;;;5050269;28;20002;-76
2023/05/23 03:43:51;;;;;;;22.58;12.07;;;;;;;;;;5048516;28;20006;-77
2023/05/23 03:46:17;;;;;;;18.63;12.25;;;;;;;;;;5048639;28;19998;-77
2023/05/23 03:48:43;;;;;;;17.50;12.25;;;;;;;;;;5049491;28;20013;-77
2023/05/23 03:51:10;;;;;;;18.38;12.35;;;;;;;;;;5046018;28;20109;-77
2023/05/23 03:53:36;;;;;;;18.67;12.30;;;;;;;;;;5049435;28;20005;-76
2023/05/23 03:56:02;;;;;;;19.55;12.45;;;;;;;;;;5043092;28;20005;-77
2023/05/23 03:58:27;;;;;;;18.00;11.95;;;409.90;2355.20;;;;;;5049471;28;20002;-76
2023/05/23 04:00:53;;;;;;;17.45;11.60;;;409.70;2355.20;;;;;;5047696;28;20097;-77
2023/05/23 04:03:19;;;;;;;17.77;11.32;;;410.10;2355.20;;;;;;5046353;28;19998;-76
2023/05/23 04:05:45;;;;;;;16.20;10.85;;;409.90;2355.20;;;;;;5046699;28;20016;-77
2023/05/23 04:08:11;;;;;;;18.05;11.60;;;410.20;2355.20;;;;;;5046092;28;20033;-77
2023/05/23 04:10:37;;;;;;;20.05;11.20;;;410.10;2355.20;;;;;;5046691;28;20010;-76
2023/05/23 04:13:03;;;;;;;17.42;11.27;;;410.40;2355.20;;;;;;5043478;28;20009;-77
2023/05/23 04:15:29;;;;;;;17.20;11.70;;;410.20;2355.20;;;;;;5046877;28;20090;-77
2023/05/23 04:17:55;;;;;;;15.50;11.88;;;410.10;2355.20;;;;;;5047744;28;20001;-77
2023/05/23 04:20:21;;;;;;;21.88;11.82;;;410.10;2355.20;;;;;;5046608;28;20029;-77
2023/05/23 04:22:47;;;;;;;18.05;12.30;;;410.10;2355.20;;;;;;5046794;28;20021;-77
2023/05/23 04:25:12;;;;;;;16.52;12.13;;;410.10;2355.20;;;;;;5045090;28;20005;-76
2023/05/23 04:27:39;;;;;;;16.27;12.00;;;410.10;2355.20;;;;;;5048632;28;19997;-77
2023/05/23 04:30:08;;;;;;;18.75;13.80;;;410.10;2355.20;;;;;;5046309;28;20020;-77
2023/05/23 04:32:34;;;;;;;20.30;15.85;;;409.90;2355.20;;;;;;5045732;28;20001;-77
2023/05/23 04:35:01;;;;;;;27.85;17.90;;;409.70;2355.20;;;;;;5049290;28;20021;-77
2023/05/23 04:37:27;;;;;;;26.08;18.02;;;409.70;2355.20;;;;;;5045053;28;20029;-77
2023/05/23 04:39:53;;;;;;;26.85;19.63;;;409.80;2355.20;;;;;;5046284;28;20001;-76
2023/05/23 04:42:23;;;;;;;31.95;21.05;;;409.80;2355.20;;;;;;5048178;28;20015;-77
2023/05/23 04:44:50;;;;;;;28.90;20.33;;;409.90;2355.20;;;;;;5046760;28;20001;-77
2023/05/23 04:47:16;;;;;;;27.33;19.13;;;409.90;2355.20;;;;;;5040397;28;20006;-77
2023/05/23 04:49:42;;;;;;;26.23;17.90;;;410.00;2355.20;;;;;;5046651;28;20024;-76
2023/05/23 04:52:07;;;;;;;25.85;16.48;;;410.00;2355.20;;;;;;5046532;28;20037;-76
2023/05/23 04:54:35;;;;;;;24.63;17.08;;;410.10;2355.20;;;;;;5047276;28;19998;-76
2023/05/23 04:57:01;;;;;;;28.52;17.13;;;410.10;2355.20;;;;;;5046277;28;20017;-77
2023/05/23 04:59:27;;;;;;;19.08;14.02;;;410.30;2355.20;;;;;;5046325;28;20053;-77
2023/05/23 05:01:52;;;;;;;15.90;11.50;;;410.40;2355.20;;;;;;5046660;28;20021;-76
2023/05/23 05:04:18;;;;;;;14.23;11.48;;;410.50;2355.20;;;;;;5043232;28;19994;-77
2023/05/23 05:06:44;;;;;;;15.55;11.35;;;410.50;2355.20;;;;;;5047410;28;20006;-77
2023/05/23 05:09:10;;;;;;;14.57;10.38;;;435.30;2355.20;;;;;;5046576;28;20009;-77
2023/05/23 05:11:35;;;;;;;15.10;9.80;;;435.30;2355.20;;;;;;5047955;28;20084;-77
2023/05/23 05:14:01;;;;;;;14.13;9.90;;;435.50;2355.20;;;;;;5051090;28;20033;-76
2023/05/23 05:16:27;;;;;;;13.13;9.38;;;435.70;2355.20;;;;;;5048846;28;20117;-77
2023/05/23 05:18:52;;;;;;;14.35;9.52;;;436.00;2355.20;;;;;;5048473;28;20017;-76
2023/05/23 05:21:18;;;;;;;15.13;10.00;;;436.10;2355.20;;;;;;5048417;28;20014;-77
2023/05/23 05:23:44;;;;;;;13.98;9.25;;;461.10;2380.80;;;;;;5049887;28;20032;-77
2023/05/23 05:26:10;;;;;;;12.60;9.27;;;460.90;2380.80;;;;;;5050930;28;20025;-77
2023/05/23 05:28:35;;;;;;;16.13;9.70;;;461.00;1996.80;;;;;;5048426;28;20016;-77
2023/05/23 05:31:03;;;;;;;12.05;9.20;;;461.10;2380.80;;;;;;5049668;28;20040;-76
2023/05/23 05:33:34;;;;;;;14.18;9.40;;;461.20;2073.60;;;;;;5048769;28;20008;-76
2023/05/23 05:36:02;;;;;;;12.63;9.63;;;461.30;2124.80;;;;;;5048233;28;20013;-78
2023/05/23 05:38:28;;;;;;;15.88;9.90;;;461.40;2380.80;;;;;;5050784;28;20012;-78
2023/05/23 05:40:54;;;;;;;13.40;9.50;;;461.40;2380.80;;;;;;5050056;28;20069;-78
2023/05/23 05:43:20;;;;;;;12.23;9.70;;;461.50;2380.80;;;;;;5049357;28;19994;-78
2023/05/23 05:45:45;;;;;;;13.88;10.00;;;461.70;2380.80;;;;;;5050909;28;20002;-78
2023/05/23 05:48:11;;;;;;;15.23;9.60;;;461.70;2380.80;;;;;;5049709;28;20020;-78
2023/05/23 05:50:37;;;;;;;12.73;9.30;;;;;;;;;;5050610;28;20062;-77
2023/05/23 05:53:03;;;;;;;11.95;9.77;;;;;;;;;;5046081;28;20032;-78
2023/05/23 05:55:30;;;;;;;13.95;9.90;;;;;;;;;;5049760;28;20009;-78
2023/05/23 05:57:56;;;;;;;12.63;9.90;;;;;;;;;;5049026;28;20029;-78
2023/05/23 06:00:22;;;;;;;12.75;9.63;;;;;;;;;;5048984;28;19994;-79
2023/05/23 06:02:55;;;;;;;15.02;9.07;;;;;;;;;;5049665;28;20021;-78
2023/05/23 06:05:22;;;;;;;13.52;9.18;;;;;;;;;;5050150;28;20005;-77
2023/05/23 06:07:49;;;;;;;12.65;8.77;;;;;;;;;;5050185;28;20038;-77
2023/05/23 06:10:15;;;;;;;13.23;8.63;;;;;;;;;;5046439;28;20010;-78
2023/05/23 06:12:41;;;;;;;14.88;8.30;;;;;;;;;;5045731;28;20034;-77
2023/05/23 06:15:08;;;;;;;12.88;8.38;;;;;;;;;;5048681;28;20014;-78
2023/05/23 06:17:34;;;;;;;13.23;8.23;;;;;;;;;;5047960;28;20009;-78
2023/05/23 06:20:01;;;;;;;15.23;7.85;;;;;;;;;;5049460;28;19994;-77
2023/05/23 06:22:27;;;;;;;14.07;7.85;;;;;;;;;;5051068;28;20010;-77
2023/05/23 06:24:53;;;;;;;11.77;7.43;;;;;;;;;;5048378;28;19998;-78
2023/05/23 06:27:19;;;;;;;13.48;7.45;;;;;;;;;;5045743;28;20002;-78
2023/05/23 06:29:45;;;;;;;15.88;8.05;;;;;;;;;;5048753;28;20065;-78
2023/05/23 06:32:11;;;;;;;14.45;8.15;;;;;;;;;;5047526;28;20001;-77
2023/05/23 06:34:37;;;;;;;11.63;7.18;;;;;;;;;;5048371;28;20006;-78
2023/05/23 06:37:03;;;;;;;10.45;7.18;;;;;;;;;;5046852;28;20010;-77
2023/05/23 06:39:30;;;;;;;10.13;7.65;;;;;;;;;;5048080;28;19998;-78
2023/05/23 06:41:56;;;;;;;8.88;7.07;;;;;;;;;;5047655;28;20002;-78
2023/05/23 06:44:22;;;;;;;10.52;7.13;;;;;;;;;;5042781;28;20065;-78
2023/05/23 06:46:48;;;;;;;9.23;7.38;;;;;;;;;;5046706;28;20013;-78
2023/05/23 06:49:14;;;;;;;9.48;7.65;;;;;;;;;;5048403;28;20010;-78
2023/05/23 06:51:41;;;;;;;10.27;7.32;;;;;;;;;;5044726;28;20033;-77
2023/05/23 06:54:07;;;;;;;10.02;7.15;;;;;;;;;;5042155;28;20010;-77
2023/05/23 06:56:33;;;;;;;8.98;6.68;;;;;;;;;;5034896;28;20030;-78
2023/05/23 06:58:59;;;;;;;8.77;7.07;;;;;;;;;;5036952;28;20010;-78
2023/05/23 07:01:26;;;;;;;8.63;6.82;;;;;;;;;;5034967;28;20041;-77
2023/05/23 07:03:52;;;;;;;11.35;7.30;;;;;;;;;;5032013;28;20001;-77
2023/05/23 07:06:18;;;;;;;9.43;7.75;;;;;;;;;;5037504;28;20079;-78
2023/05/23 07:08:45;;;;;;;10.40;7.32;;;563.70;2432.00;;;;;;5034819;28;20005;-77
2023/05/23 07:11:11;;;;;;;7.40;6.60;;;563.50;2432.00;;;;;;5027126;28;20074;-77
2023/05/23 07:13:37;;;;;;;8.32;6.70;;;563.60;2432.00;;;;;;5037556;28;20002;-78
2023/05/23 07:16:03;;;;;;;10.10;6.80;;;564.00;2432.00;;;;;;5030521;28;20354;-78
2023/05/23 07:18:28;;;;;;;9.48;6.72;;;563.90;2432.00;;;;;;5035254;28;20102;-78
2023/05/23 07:20:54;;;;;;;8.10;6.65;;;563.80;2432.00;;;;;;5035178;28;20013;-78
2023/05/23 07:23:23;;;;;;;10.32;6.90;;;563.70;2432.00;;;;;;5037231;28;20044;-77
2023/05/23 07:25:49;;;;;;;11.15;6.82;;;;;;;;;;5038630;28;20032;-78
2023/05/23 07:28:15;;;;;;;10.90;7.07;;;;;;;;;;5031054;28;20021;-78
2023/05/23 07:30:41;;;;;;;9.30;6.90;;;;;;;;;;5036973;28;20010;-78
2023/05/23 07:33:08;;;;;;;10.68;6.93;;;;;;;;;;5033156;28;20034;-78
2023/05/23 07:35:34;;;;;;;10.15;7.18;;;;;;;;;;5033980;28;20116;-77
2023/05/23 07:38:00;;;;;;;10.68;7.25;;;;;;;;;;5025286;28;20006;-78
2023/05/23 07:40:26;;;;;;;9.63;7.35;;;;;;;;;;5042355;28;20016;-78
2023/05/23 07:42:53;;;;;;;9.00;7.60;;;;;;;;;;5027432;28;20082;-78
2023/05/23 07:45:19;;;;;;;8.40;7.32;;;;;;;;;;5031439;28;20006;-78
2023/05/23 07:47:45;;;;;;;10.45;6.95;;;;;;;;;;5032415;28;20025;-77
2023/05/23 07:50:11;;;;;;;9.38;7.40;;;;;;;;;;5037234;28;20038;-77
2023/05/23 07:52:37;;;;;;;9.90;7.15;;;;;;;;;;5024272;28;20006;-77
2023/05/23 07:55:04;;;;;;;9.38;8.32;;;;;;;;;;5020962;28;20082;-77
2023/05/23 07:57:30;;;;;;;12.38;7.40;;;;;;;;;;5024866;28;20033;-76
2023/05/23 07:59:56;;;;;;;8.02;7.20;;;;;;;;;;5021737;28;20446;-76
2023/05/23 08:02:22;;;;;;;10.77;7.43;;;;;;;;;;5022441;28;20485;-76
2023/05/23 08:04:48;;;;;;;11.23;9.57;;;;;;;;;;5036043;28;20010;-76
2023/05/23 08:07:14;;;;;;;10.07;9.07;;;;;;;;;;5023221;28;20017;-75
2023/05/23 08:09:41;;;;;;;11.73;7.20;;;;;;;;;;5023132;28;20029;-76
2023/05/23 08:12:08;;;;;;;11.43;7.80;;;;;;;;;;5025186;28;20078;-76
2023/05/23 08:14:34;;;;;;;14.00;12.75;;;;;;;;;;5046368;28;20076;-76
2023/05/23 08:17:01;;;;;;;13.02;11.77;;;;;;;;;;5016843;28;20022;-77
2023/05/23 08:19:27;;;;;;;14.98;13.68;;;;;;;;;;5015018;28;20018;-77
2023/05/23 08:21:53;;;;;;;10.52;8.88;;;;;;;;;;5028626;28;20010;-76
2023/05/23 08:24:20;;;;;;;15.73;14.18;;;;;;;;;;5044289;28;20014;-76
2023/05/23 08:26:47;;;;;;;13.82;12.70;;;;;;;;;;5030388;28;20068;-75
2023/05/23 08:29:13;;;;;;;10.52;9.43;;;;;;;;;;5034702;28;20022;-75
2023/05/23 08:31:39;;;;;;;10.88;9.93;;;;;;;;;;5026894;28;20010;-76
2023/05/23 08:34:06;;;;;;;15.75;14.48;;;;;;;;;;5025037;28;20538;-77
2023/05/23 08:36:35;;;;;;;12.52;11.50;;;665.60;1894.40;;;;;;5034635;28;20040;-76
2023/05/23 08:39:01;;;;;;;20.10;18.40;;;665.90;1868.80;;;;;;5045026;28;20020;-78
2023/05/23 08:41:28;;;;;;;19.05;17.65;;;665.60;1843.20;;;;;;5029133;28;20006;-76
2023/05/23 08:43:54;;;;;;;21.13;19.33;;;640.80;1868.80;;;;;;5034109;28;20017;-77
2023/05/23 08:46:21;;;;;;;24.15;22.42;;;640.90;1920.00;;;;;;5035824;28;20052;-77
2023/05/23 08:48:51;;;;;;;23.15;21.45;;;665.70;1945.60;;;;;;5022697;28;20048;-77
2023/05/23 08:51:20;;;;;;;18.17;16.70;;;666.10;1920.00;;;;;;5030817;28;20026;-76
2023/05/23 08:53:47;;;;;;;15.93;14.63;;;665.80;1894.40;;;;;;5036518;28;20117;-77
2023/05/23 08:56:13;;;;;;;25.00;22.73;;;665.90;1996.80;;;;;;5037070;28;20017;-76
2023/05/23 08:58:44;;;;;;;22.02;20.08;;;;;;;;;;5034643;28;20013;-76
2023/05/23 09:01:10;;;;;;;24.10;22.30;;;691.40;1792.00;;;;;;5031960;28;20021;-76
2023/05/23 09:03:37;;;;;;;34.67;32.30;;;691.30;1792.00;;;;;;5033851;28;20013;-76
2023/05/23 09:06:05;;;;;;;31.05;29.08;;;691.90;1689.60;;;;;;5032043;28;20335;-77
2023/05/23 09:08:31;;;;;;;37.42;35.08;;;691.80;1689.60;;;;;;5035365;28;20030;-77
2023/05/23 09:10:57;;;;;;;36.58;34.15;;;717.00;1587.20;;;;;;5036163;28;20044;-77
2023/05/23 09:13:24;;;;;;;37.85;35.55;;;716.90;1587.20;;;;;;5030022;28;19994;-78
2023/05/23 09:16:05;;;;;;;32.40;30.40;;;717.00;1587.20;;;;;;5023476;28;20021;-78
2023/05/23 09:18:48;;;;;;;29.85;27.98;;;717.30;1510.40;;;;;;5028851;28;19998;-78
2023/05/23 09:21:14;;;;;;;20.90;19.58;;;717.10;1484.80;;;;;;5032101;28;20010;-78
2023/05/23 09:23:40;;;;;;;16.17;15.10;;;716.90;1408.00;;;;;;5037142;28;20018;-78
2023/05/23 09:26:12;;;;;;;19.02;17.73;;;716.90;1433.60;;;;;;5033032;28;20006;-77
2023/05/23 09:28:39;;;;;;;21.60;20.20;;;717.30;1433.60;;;;;;5033118;28;20029;-78
2023/05/23 09:31:07;;;;;;;19.55;18.13;;;717.60;1433.60;;;;;;5030706;28;20013;-78
2023/05/23 09:33:53;;;;;;;21.00;19.50;;;;;;;;;;5035518;28;19999;-78
2023/05/23 09:36:19;;;;;;;19.73;18.38;;;;;;;;;;5031449;28;20085;-78
2023/05/23 09:38:47;;;;;;;23.58;21.88;;;742.50;1484.80;;;;;;5025333;28;20009;-78
2023/05/23 09:41:13;;;;;;;17.10;15.70;;;742.40;1484.80;;;;;;5027842;28;20006;-78
2023/05/23 09:43:53;;;;;;;18.15;16.70;;;717.30;1433.60;;;;;;5031362;28;20030;-78
2023/05/23 09:46:20;;;;;;;18.20;16.77;;;;;;;;;;5024026;28;20010;-78
2023/05/23 09:48:51;;;;;;;15.60;14.43;;;742.40;1459.20;;;;;;5037459;28;20072;-77
2023/05/23 09:51:22;;;;;;;16.67;15.40;;;717.70;1433.60;;;;;;5033508;28;20033;-77
2023/05/23 09:53:49;;;;;;;17.75;16.35;;;717.20;1459.20;;;;;;5033137;28;20028;-77
2023/05/23 09:56:18;;;;;;;15.88;14.68;;;717.20;1408.00;;;;;;5036595;28;20034;-78
2023/05/23 09:58:47;;;;;;;14.43;13.32;;;717.70;1433.60;;;;;;5038620;28;20022;-78
2023/05/23 10:01:13;;;;;;;18.38;16.98;;;742.40;1408.00;;;;;;5040227;28;20059;-78
2023/05/23 10:03:45;;;;;;;12.93;11.98;;;742.50;1433.60;;;;;;5039513;28;20013;-78
2023/05/23 10:06:18;;;;;;;11.93;10.98;;;742.40;1433.60;;;;;;5037445;28;20016;-78
2023/05/23 10:08:47;;;;;;;11.93;10.65;;;717.50;1408.00;;;;;;5051118;28;20061;-78
2023/05/23 10:11:13;;;;;;;10.88;9.55;;;717.70;1382.40;;;;;;5045682;28;20012;-77
2023/05/23 10:13:44;;;;;;;11.73;10.63;;;717.60;1382.40;;;;;;5046952;28;20018;-77
2023/05/23 10:16:21;;;;;;;11.02;10.23;;;742.60;1408.00;;;;;;5049131;28;20077;-77
2023/05/23 10:18:56;;;;;;;11.85;10.85;;;717.60;1433.60;;;;;;5047022;28;20013;-77
2023/05/23 10:21:37;;;;;;;10.65;9.73;;;742.40;1433.60;;;;;;5049572;28;20060;-78
2023/05/23 10:24:03;;;;;;;8.55;6.70;;;742.50;1408.00;;;;;;5044441;28;20017;-77
2023/05/23 10:26:30;;;;;;;9.73;8.82;;;742.40;1356.80;;;;;;5046156;28;20014;-78
2023/05/23 10:28:57;;;;;;;9.13;7.50;;;742.50;1408.00;;;;;;5048502;28;20005;-78
2023/05/23 10:31:23;;;;;;;9.85;8.35;;;742.40;1382.40;;;;;;5047442;28;20077;-78
2023/05/23 10:33:57;;;;;;;8.13;7.22;;;742.90;1382.40;;;;;;5048579;28;20013;-77
2023/05/23 10:36:36;;;;;;;10.48;6.15;;;742.90;1356.80;;;;;;5049791;28;20014;-78
2023/05/23 10:39:31;;;;;;;7.80;6.85;;;742.80;1356.80;;;;;;5043288;28;20007;-77
2023/05/23 10:42:27;;;;;;;8.95;7.55;;;768.00;1331.20;;;;;;4981810;28;20007;-78
2023/05/23 10:45:12;;;;;;;7.07;6.25;;;743.10;1331.20;;;;;;5002107;28;20002;-78
2023/05/23 10:47:38;;;;;;;6.75;6.00;;;743.20;1331.20;;;;;;5001466;28;20027;-78
2023/05/23 10:50:05;;;;;;;6.75;6.15;;;768.20;1331.20;;;;;;5004521;28;20003;-78
2023/05/23 10:52:39;;;;;;;6.50;5.68;;;768.10;1280.00;;;;;;4999149;28;20074;-78
2023/05/23 10:55:16;;;;;;;6.15;5.57;;;768.20;1305.60;;;;;;5002791;28;19998;-76
2023/05/23 10:57:45;;;;;;;9.00;5.88;;;768.30;1280.00;;;;;;4996401;28;20050;-79
2023/05/23 11:00:15;;;;;;;6.63;5.53;;;768.00;1280.00;;;;;;5002044;28;20081;-78
2023/05/23 11:03:03;;;;;;;7.70;6.88;;;768.20;1305.60;;;;;;4999371;28;20014;-78
2023/05/23 11:05:30;;;;;;;6.18;5.13;;;743.20;1280.00;;;;;;5006092;28;20059;-79
2023/05/23 11:08:13;;;;;;;7.78;5.00;;;743.30;1305.60;;;;;;5007816;28;19998;-77
2023/05/23 11:10:59;;;;;;;8.00;5.00;;;768.00;1280.00;;;;;;4990855;28;20003;-78
2023/05/23 11:13:25;;;;;;;9.07;5.53;;;768.00;1280.00;;;;;;5005840;28;20019;-79
2023/05/23 11:15:51;;;;;;;5.97;4.80;;;768.30;1280.00;;;;;;4990000;28;20069;-76
2023/05/23 11:18:23;;;;;;;6.60;5.00;;;768.30;1305.60;;;;;;5018528;28;20010;-78
2023/05/23 11:20:53;;;;;;;5.65;4.90;;;768.70;1280.00;;;;;;5047406;28;20005;-78
2023/05/23 11:23:20;;;;;;;5.93;4.60;;;768.90;1305.60;;;;;;5047192;28;20006;-78
2023/05/23 11:25:52;;;;;;;5.88;4.20;;;793.80;1254.40;;;;;;5046590;28;20014;-78
2023/05/23 11:28:19;;;;;;;6.00;4.85;;;794.00;1305.60;;;;;;5043769;28;20010;-78
2023/05/23 11:30:48;;;;;;;6.50;4.82;;;793.90;1203.20;;;;;;5045305;28;20006;-77
2023/05/23 11:33:15;;;;;;;6.65;4.50;;;793.60;1254.40;;;;;;5047127;28;20001;-78
2023/05/23 11:35:50;;;;;;;8.50;6.10;;;793.60;1280.00;;;;;;5047828;28;20013;-78
2023/05/23 11:38:16;;;;;;;6.10;5.53;;;768.90;1280.00;;;;;;5042473;28;20041;-78
2023/05/23 11:40:44;;;;;;;6.65;5.13;;;768.50;1305.60;;;;;;5046221;28;20006;-79
2023/05/23 11:43:13;;;;;;;5.97;5.38;;;768.40;1305.60;;;;;;5046245;28;20016;-79
2023/05/23 11:45:40;;;;;;;5.70;4.65;;;768.20;1331.20;;;;;;5045324;28;20010;-78
2023/05/23 11:48:10;;;;;;;5.78;5.18;;;768.40;1305.60;;;;;;5041796;28;20028;-78
2023/05/23 11:50:50;;;;;;;6.43;5.03;;;768.30;1356.80;;;;;;5047744;28;20029;-78
2023/05/23 11:53:19;;;;;;;8.90;5.70;;;768.40;1356.80;;;;;;5046231;28;20005;-78
2023/05/23 11:55:53;;;;;;;5.53;4.90;;;768.50;1356.80;;;;;;5047561;28;20025;-78
2023/05/23 11:58:21;;;;;;;5.53;4.83;;;793.60;1356.80;;;;;;5044907;28;20001;-78
2023/05/23 12:00:47;;;;;;;7.22;5.30;;;794.00;1331.20;;;;;;5046319;28;20018;-78
2023/05/23 12:03:13;;;;;;;8.02;5.65;;;793.80;1331.20;;;;;;5047180;28;20018;-78
2023/05/23 12:05:38;;;;;;;5.72;5.05;;;768.40;1331.20;;;;;;5046367;28;19998;-78
2023/05/23 12:08:04;;;;;;;6.63;5.15;;;;;;;;;;5047484;28;20024;-79
2023/05/23 12:10:30;;;;;;;5.65;4.70;;;;;;;;;;5042484;28;20343;-78
2023/05/23 12:12:57;;;;;;;6.40;4.55;;;;;;;;;;5044921;28;20076;-78
2023/05/23 12:15:27;;;;;;;4.95;4.40;;;;;;;;;;5044257;28;20005;-78
2023/05/23 12:17:53;;;;;;;6.72;4.50;;;;;;;;;;5046337;28;20045;-78
2023/05/23 12:20:20;;;;;;;6.43;5.75;;;;;;;;;;5048323;28;20300;-78
2023/05/23 12:22:46;;;;;;;7.97;4.70;;;768.90;1254.40;;;;;;5043327;28;20232;-78
2023/05/23 12:25:13;;;;;;;7.35;4.60;;;768.80;1228.80;;;;;;5044859;28;19997;-79
2023/05/23 12:27:42;;;;;;;6.22;4.53;;;768.80;1228.80;;;;;;5040895;28;20128;-78
2023/05/23 12:30:10;;;;;;;5.47;4.18;;;793.70;1254.40;;;;;;5044230;28;20014;-78
2023/05/23 12:32:43;;;;;;;5.05;4.38;;;793.80;1280.00;;;;;;5043277;28;20001;-77
2023/05/23 12:35:13;;;;;;;5.30;3.97;;;768.90;1228.80;;;;;;5043467;28;20009;-78
2023/05/23 12:37:46;;;;;;;6.82;4.25;;;768.50;1228.80;;;;;;5043006;28;20017;-77
2023/05/23 12:40:16;;;;;;;6.57;4.30;;;768.60;1254.40;;;;;;5046377;28;20009;-78
2023/05/23 12:42:52;;;;;;;5.80;4.10;;;768.60;1203.20;;;;;;5047155;28;20013;-78
2023/05/23 12:45:38;;;;;;;4.78;3.83;;;768.50;1203.20;;;;;;5044543;28;20006;-78
2023/05/23 12:48:07;;;;;;;5.28;4.05;;;;;;;;;;5043043;28;20009;-79
2023/05/23 12:50:34;;;;;;;5.88;3.80;;;768.60;1203.20;;;;;;5044360;28;20113;-80
2023/05/23 12:53:00;;;;;;;6.03;3.90;;;768.50;1228.80;;;;;;5043300;28;19998;-78